createdAt,value
2023-01-28T00:02:17.961Z,101369.19
2023-01-28T00:04:46.303Z,101363.91
2023-01-28T00:07:17.647Z,101367.28
2023-01-28T00:09:45.956Z,101368.06
2023-01-28T00:12:14.300Z,101366.16
2023-01-28T00:14:46.289Z,101367.72
2023-01-28T00:17:15.270Z,101358.03
2023-01-28T00:19:45.406Z,101361.44
2023-01-28T00:22:15.823Z,101356.00
2023-01-28T00:24:44.587Z,101354.19
2023-01-28T00:27:13.784Z,101348.81
2023-01-28T00:29:42.144Z,101356.66
2023-01-28T00:32:10.985Z,101339.22
2023-01-28T00:34:39.332Z,101348.56
2023-01-28T00:37:10.530Z,101350.13
2023-01-28T00:39:38.990Z,101356.88
2023-01-28T00:42:09.482Z,101353.50
2023-01-28T00:44:37.799Z,101368.13
2023-01-28T00:47:06.380Z,101362.81
2023-01-28T00:49:34.827Z,101361.03
2023-01-28T00:52:03.989Z,101365.16
2023-01-28T00:54:33.780Z,101359.09
2023-01-28T00:57:02.200Z,101356.38
2023-01-28T00:59:30.604Z,101354.59
2023-01-28T01:02:12.356Z,101359.78
2023-01-28T01:04:40.909Z,101358.75
2023-01-28T01:07:09.404Z,101363.81
2023-01-28T01:09:39.159Z,101366.28
2023-01-28T01:12:08.962Z,101362.66
2023-01-28T01:14:37.385Z,101355.69
2023-01-28T01:17:05.807Z,101364.22
2023-01-28T01:19:35.451Z,101366.72
2023-01-28T01:22:03.858Z,101360.63
2023-01-28T01:24:33.991Z,101360.63
2023-01-28T01:27:05.995Z,101357.94
2023-01-28T01:29:34.842Z,101362.22
2023-01-28T01:32:06.153Z,101355.22
2023-01-28T01:34:34.644Z,101353.41
2023-01-28T01:37:03.938Z,101349.94
2023-01-28T01:39:33.690Z,101355.78
2023-01-28T01:42:03.483Z,101353.06
2023-01-28T01:44:56.420Z,101368.44
2023-01-28T01:47:30.439Z,101360.59
2023-01-28T01:50:04.082Z,101370.78
2023-01-28T01:52:36.048Z,101372.34
2023-01-28T01:55:10.441Z,101367.97
2023-01-28T01:57:40.278Z,101365.25
2023-01-28T02:00:11.561Z,101370.44
2023-01-28T02:02:46.381Z,101375.50
2023-01-28T02:05:18.251Z,101367.75
2023-01-28T02:07:49.005Z,101377.94
2023-01-28T02:10:19.734Z,101366.72
2023-01-28T02:12:54.605Z,101366.72
2023-01-28T02:15:29.712Z,101376.25
2023-01-28T02:17:58.560Z,101386.50
2023-01-28T02:20:42.523Z,101378.75
2023-01-28T02:23:28.735Z,101379.41
2023-01-28T02:26:37.299Z,101377.59
2023-01-28T02:29:15.231Z,101379.41
2023-01-28T02:31:50.051Z,101385.34
2023-01-28T02:34:26.324Z,101386.13
2023-01-28T02:36:59.956Z,101392.06
2023-01-28T02:39:33.265Z,101387.69
2023-01-28T02:42:07.058Z,101387.69
2023-01-28T02:44:36.944Z,101389.25
2023-01-28T02:47:28.059Z,101392.84
2023-01-28T02:49:59.762Z,101395.31
2023-01-28T02:52:56.781Z,101392.63
2023-01-28T02:55:31.535Z,101396.78
2023-01-28T02:58:10.893Z,101399.34
2023-01-28T03:00:47.461Z,101394.97
2023-01-28T03:03:23.055Z,101402.47
2023-01-28T03:06:06.817Z,101391.88
2023-01-28T03:08:56.846Z,101399.50
2023-01-28T03:11:43.223Z,101396.81
2023-01-28T03:14:33.458Z,101402.75
2023-01-28T03:17:26.542Z,101393.22
2023-01-28T03:20:13.031Z,101392.19
2023-01-28T03:23:07.758Z,101392.97
2023-01-28T03:25:58.767Z,101391.16
2023-01-28T03:28:47.660Z,101397.91
2023-01-28T03:31:36.179Z,101393.50
2023-01-28T03:34:24.730Z,101390.91
2023-01-28T03:36:54.328Z,101384.84
2023-01-28T03:39:48.884Z,101394.81
2023-01-28T03:42:19.473Z,101394.56
2023-01-28T03:45:05.444Z,101396.91
2023-01-28T03:47:35.120Z,101394.06
2023-01-28T03:50:08.446Z,101397.56
2023-01-28T03:52:46.302Z,101405.19
2023-01-28T03:55:25.815Z,101404.28
2023-01-28T03:57:54.242Z,101407.75
2023-01-28T04:00:23.335Z,101410.34
2023-01-28T04:02:51.733Z,101414.47
2023-01-28T04:05:23.561Z,101415.28
2023-01-28T04:07:55.969Z,101402.34
2023-01-28T04:10:34.530Z,101407.38
2023-01-28T04:13:13.352Z,101412.44
2023-01-28T04:15:44.277Z,101418.38
2023-01-28T04:18:13.253Z,101414.91
2023-01-28T04:20:43.600Z,101416.59
2023-01-28T04:23:11.970Z,101421.75
2023-01-28T04:25:40.328Z,101424.19
2023-01-28T04:28:10.881Z,101420.56
2023-01-28T04:30:39.260Z,101436.06
2023-01-28T04:33:36.665Z,101428.22
2023-01-28T04:36:16.800Z,101429.88
2023-01-28T04:39:04.091Z,101443.72
2023-01-28T04:41:44.272Z,101429.78
2023-01-28T04:44:20.576Z,101429.78
2023-01-28T04:47:07.432Z,101438.28
2023-01-28T04:49:58.807Z,101437.50
2023-01-28T04:52:45.091Z,101440.09
2023-01-28T04:55:48.903Z,101427.03
2023-01-28T04:58:17.488Z,101431.44
2023-01-28T05:00:47.653Z,101438.28
2023-01-28T05:03:18.172Z,101432.34
2023-01-28T05:05:47.044Z,101432.34
2023-01-28T05:08:24.790Z,101427.94
2023-01-28T05:10:55.482Z,101437.38
2023-01-28T05:13:24.449Z,101425.25
2023-01-28T05:15:55.688Z,101424.34
2023-01-28T05:18:24.137Z,101435.59
2023-01-28T05:21:04.598Z,101432.09
2023-01-28T05:23:35.953Z,101438.03
2023-01-28T05:26:04.537Z,101427.84
2023-01-28T05:28:32.945Z,101424.34
2023-01-28T05:31:04.580Z,101435.59
2023-01-28T05:33:33.293Z,101424.34
2023-01-28T05:36:02.066Z,101432.09
2023-01-28T05:38:30.518Z,101433.66
2023-01-28T05:41:00.464Z,101441.41
2023-01-28T05:43:29.833Z,101437.66
2023-01-28T05:46:22.721Z,101442.47
2023-01-28T05:49:04.476Z,101444.00
2023-01-28T05:51:33.077Z,101449.91
2023-01-28T05:54:01.639Z,101452.50
2023-01-28T05:56:31.384Z,101455.88
2023-01-28T05:58:59.794Z,101450.72
2023-01-28T06:01:30.837Z,101466.22
2023-01-28T06:04:00.657Z,101469.53
2023-01-28T06:06:31.288Z,101469.53
2023-01-28T06:08:59.728Z,101469.53
2023-01-28T06:11:32.600Z,101477.28
2023-01-28T06:14:04.620Z,101475.63
2023-01-28T06:16:52.174Z,101468.66
2023-01-28T06:19:52.801Z,101470.34
2023-01-28T06:22:21.452Z,101471.22
2023-01-28T06:24:49.858Z,101472.00
2023-01-28T06:27:19.667Z,101469.53
2023-01-28T06:29:48.045Z,101472.13
2023-01-28T06:32:17.698Z,101469.53
2023-01-28T06:34:46.112Z,101465.16
2023-01-28T06:37:17.113Z,101464.13
2023-01-28T06:39:45.558Z,101462.34
2023-01-28T06:42:13.962Z,101471.78
2023-01-28T06:44:43.770Z,101466.47
2023-01-28T06:47:15.661Z,101470.84
2023-01-28T06:49:45.967Z,101468.25
2023-01-28T06:52:14.345Z,101478.59
2023-01-28T06:54:47.991Z,101474.22
2023-01-28T06:57:16.402Z,101479.38
2023-01-28T06:59:46.414Z,101473.16
2023-01-28T07:02:14.827Z,101476.53
2023-01-28T07:04:44.479Z,101482.59
2023-01-28T07:07:12.744Z,101469.56
2023-01-28T07:09:41.018Z,101469.56
2023-01-28T07:12:09.319Z,101454.84
2023-01-28T07:14:39.760Z,101463.38
2023-01-28T07:17:09.481Z,101469.31
2023-01-28T07:19:40.583Z,101464.94
2023-01-28T07:22:08.963Z,101465.69
2023-01-28T07:24:39.007Z,101475.13
2023-01-28T07:27:07.357Z,101480.16
2023-01-28T07:29:35.634Z,101483.50
2023-01-28T07:32:07.198Z,101482.59
2023-01-28T07:34:39.798Z,101473.81
2023-01-28T07:37:10.501Z,101475.63
2023-01-28T07:39:38.908Z,101477.31
2023-01-28T07:42:07.574Z,101472.94
2023-01-28T07:44:40.474Z,101472.94
2023-01-28T07:47:13.578Z,101478.09
2023-01-28T07:49:44.504Z,101484.78
2023-01-28T07:52:12.954Z,101484.78
2023-01-28T07:54:41.339Z,101483.00
2023-01-28T07:57:10.841Z,101476.91
2023-01-28T07:59:39.228Z,101486.47
2023-01-28T08:02:13.366Z,101490.84
2023-01-28T08:04:43.230Z,101496.81
2023-01-28T08:07:11.633Z,101499.38
2023-01-28T08:09:40.035Z,101501.06
2023-01-28T08:12:08.567Z,101503.66
2023-01-28T08:14:39.805Z,101515.50
2023-01-28T08:17:08.226Z,101513.69
2023-01-28T08:19:38.220Z,101519.78
2023-01-28T08:22:07.893Z,101521.72
2023-01-28T08:24:36.241Z,101536.41
2023-01-28T08:27:04.875Z,101536.41
2023-01-28T08:29:36.157Z,101536.41
2023-01-28T08:32:04.499Z,101540.78
2023-01-28T08:34:34.823Z,101533.03
2023-01-28T08:37:07.447Z,101528.16
2023-01-28T08:39:37.245Z,101535.13
2023-01-28T08:42:08.720Z,101543.91
2023-01-28T08:44:37.109Z,101537.94
2023-01-28T08:47:09.960Z,101536.31
2023-01-28T08:49:38.360Z,101540.81
2023-01-28T08:52:08.505Z,101552.16
2023-01-28T08:54:37.336Z,101559.25
2023-01-28T08:57:05.794Z,101554.22
2023-01-28T08:59:34.268Z,101569.97
2023-01-28T09:02:02.823Z,101567.53
2023-01-28T09:04:31.260Z,101572.81
2023-01-28T09:07:03.254Z,101576.44
2023-01-28T09:09:33.039Z,101583.41
2023-01-28T09:12:01.746Z,101596.59
2023-01-28T09:14:30.102Z,101602.78
2023-01-28T09:17:02.916Z,101601.09
2023-01-28T09:19:32.754Z,101587.03
2023-01-28T09:22:06.944Z,101600.72
2023-01-28T09:24:41.764Z,101608.44
2023-01-28T09:27:13.851Z,101600.47
2023-01-28T09:29:43.241Z,101610.78
2023-01-28T09:32:12.705Z,101611.44
2023-01-28T09:34:41.698Z,101602.00
2023-01-28T09:37:15.005Z,101605.63
2023-01-28T09:39:45.908Z,101606.66
2023-01-28T09:42:41.979Z,101605.13
2023-01-28T09:45:23.684Z,101596.59
2023-01-28T09:48:00.238Z,101600.97
2023-01-28T09:50:37.384Z,101613.22
2023-01-28T09:53:12.467Z,101618.53
2023-01-28T09:55:47.381Z,101625.50
2023-01-28T09:58:18.533Z,101625.63
2023-01-28T10:00:59.122Z,101620.63
2023-01-28T10:03:42.744Z,101611.28
2023-01-28T10:06:21.921Z,101606.28
2023-01-28T10:09:08.599Z,101609.91
2023-01-28T10:11:58.625Z,101608.47
2023-01-28T10:14:42.552Z,101607.81
2023-01-28T10:17:18.103Z,101599.16
2023-01-28T10:19:51.996Z,101606.16
2023-01-28T10:22:26.007Z,101618.94
2023-01-28T10:25:06.461Z,101618.03
2023-01-28T10:27:38.544Z,101610.16
2023-01-28T10:30:19.872Z,101602.53
2023-01-28T10:32:58.962Z,101593.09
2023-01-28T10:35:33.009Z,101597.63
2023-01-28T10:38:08.721Z,101594.25
2023-01-28T10:40:38.326Z,101590.91
2023-01-28T10:43:10.223Z,101591.16
2023-01-28T10:45:50.036Z,101592.19
2023-01-28T10:48:24.169Z,101592.31
2023-01-28T10:51:02.268Z,101595.03
2023-01-28T10:53:41.570Z,101596.22
2023-01-28T10:56:22.763Z,101600.72
2023-01-28T10:59:03.106Z,101606.16
2023-01-28T11:01:45.422Z,101611.72
2023-01-28T11:04:28.204Z,101606.00
2023-01-28T11:07:01.529Z,101615.69
2023-01-28T11:09:33.707Z,101608.97
2023-01-28T11:12:13.449Z,101616.59
2023-01-28T11:14:52.389Z,101621.75
2023-01-28T11:17:25.052Z,101629.41
2023-01-28T11:19:56.579Z,101617.13
2023-01-28T11:22:35.440Z,101614.28
2023-01-28T11:25:08.192Z,101612.47
2023-01-28T11:27:42.468Z,101628.22
2023-01-28T11:30:23.753Z,101636.09
2023-01-28T11:33:03.763Z,101630.16
2023-01-28T11:35:33.508Z,101624.22
2023-01-28T11:38:02.780Z,101618.25
2023-01-28T11:40:32.740Z,101616.47
2023-01-28T11:43:02.356Z,101597.22
2023-01-28T11:45:49.063Z,101605.88
2023-01-28T11:48:31.123Z,101607.69
2023-01-28T11:51:07.750Z,101610.41
2023-01-28T11:54:08.942Z,101607.81
2023-01-28T11:56:55.980Z,101600.19
2023-01-28T11:59:52.635Z,101603.78
2023-01-28T12:02:48.010Z,101598.88
2023-01-28T12:05:24.099Z,101595.53
2023-01-28T12:08:01.165Z,101597.31
2023-01-28T12:10:41.626Z,101600.47
2023-01-28T12:13:26.410Z,101589.84
2023-01-28T12:16:31.623Z,101591.38
2023-01-28T12:19:26.180Z,101589.59
2023-01-28T12:22:20.362Z,101584.44
2023-01-28T12:25:07.980Z,101583.38
2023-01-28T12:27:54.969Z,101583.00
2023-01-28T12:30:35.010Z,101573.06
2023-01-28T12:33:42.714Z,101565.31
2023-01-28T12:36:26.412Z,101557.81
2023-01-28T12:39:04.198Z,101546.97
2023-01-28T12:41:37.782Z,101536.88
2023-01-28T12:44:14.291Z,101541.53
2023-01-28T12:46:46.657Z,101538.28
2023-01-28T12:49:21.902Z,101542.66
2023-01-28T12:52:02.417Z,101528.84
2023-01-28T12:54:37.377Z,101508.31
2023-01-28T12:57:10.363Z,101516.44
2023-01-28T12:59:47.644Z,101508.16
2023-01-28T13:02:27.785Z,101481.63
2023-01-28T13:05:07.041Z,101471.53
2023-01-28T13:07:44.657Z,101466.38
2023-01-28T13:10:21.396Z,101455.28
2023-01-28T13:12:55.440Z,101459.78
2023-01-28T13:15:25.470Z,101470.22
2023-01-28T13:17:59.305Z,101489.63
2023-01-28T13:20:38.754Z,101498.50
2023-01-28T13:23:26.576Z,101507.31
2023-01-28T13:25:56.790Z,101507.41
2023-01-28T13:28:33.779Z,101505.75
2023-01-28T13:31:09.106Z,101504.94
2023-01-28T13:33:40.914Z,101511.44
2023-01-28T13:36:27.044Z,101506.28
2023-01-28T13:39:18.009Z,101512.22
2023-01-28T13:41:49.166Z,101513.00
2023-01-28T13:44:27.695Z,101517.31
2023-01-28T13:47:00.131Z,101521.19
2023-01-28T13:49:35.408Z,101525.47
2023-01-28T13:52:14.280Z,101520.41
2023-01-28T13:54:47.673Z,101527.50
2023-01-28T13:57:50.445Z,101528.53
2023-01-28T14:00:31.279Z,101530.47
2023-01-28T14:03:42.598Z,101530.63
2023-01-28T14:06:52.925Z,101537.56
2023-01-28T14:09:45.305Z,101542.09
2023-01-28T14:12:51.584Z,101551.78
2023-01-28T14:16:01.947Z,101530.69
2023-01-28T14:18:36.950Z,101543.22
2023-01-28T14:21:13.834Z,101546.28
2023-01-28T14:23:50.667Z,101546.91
2023-01-28T14:26:32.701Z,101530.19
2023-01-28T14:29:16.543Z,101526.66
2023-01-28T14:31:45.753Z,101523.88
2023-01-28T14:34:25.149Z,101503.91
2023-01-28T14:36:57.551Z,101492.44
2023-01-28T14:39:29.185Z,101506.09
2023-01-28T14:42:02.836Z,101493.63
2023-01-28T14:44:35.817Z,101488.94
2023-01-28T14:47:30.670Z,101485.75
2023-01-28T14:50:21.677Z,101484.19
2023-01-28T14:53:11.679Z,101468.66
2023-01-28T14:55:50.604Z,101464.16
2023-01-28T14:58:26.680Z,101473.41
2023-01-28T15:01:00.553Z,101462.31
2023-01-28T15:03:31.672Z,101469.38
2023-01-28T15:06:07.721Z,101484.97
2023-01-28T15:08:40.547Z,101489.69
2023-01-28T15:11:17.892Z,101493.63
2023-01-28T15:13:50.836Z,101503.47
2023-01-28T15:16:26.017Z,101494.44
2023-01-28T15:18:55.518Z,101494.06
2023-01-28T15:21:27.331Z,101498.91
2023-01-28T15:24:00.413Z,101507.84
2023-01-28T15:26:33.840Z,101511.63
2023-01-28T15:29:03.394Z,101518.03
2023-01-28T15:31:39.599Z,101515.97
2023-01-28T15:34:18.047Z,101510.31
2023-01-28T15:36:50.375Z,101510.69
2023-01-28T15:39:21.624Z,101520.78
2023-01-28T15:41:54.836Z,101520.56
2023-01-28T15:44:31.100Z,101524.44
2023-01-28T15:47:04.015Z,101527.53
2023-01-28T15:49:50.250Z,101525.38
2023-01-28T15:52:19.453Z,101543.06
2023-01-28T15:54:53.364Z,101545.28
2023-01-28T15:57:28.884Z,101545.69
2023-01-28T16:00:12.490Z,101557.31
2023-01-28T16:02:47.672Z,101555.25
2023-01-28T16:05:32.383Z,101552.16
2023-01-28T16:08:05.841Z,101548.81
2023-01-28T16:10:35.935Z,101563.00
2023-01-28T16:13:08.440Z,101565.22
2023-01-28T16:15:39.531Z,101570.50
2023-01-28T16:18:31.645Z,101571.66
2023-01-28T16:21:01.311Z,101577.84
2023-01-28T16:23:30.453Z,101586.75
2023-01-28T16:26:04.520Z,101592.28
2023-01-28T16:28:34.953Z,101587.50
2023-01-28T16:31:07.948Z,101578.47
2023-01-28T16:33:39.027Z,101584.88
2023-01-28T16:36:13.188Z,101589.78
2023-01-28T16:38:42.571Z,101589.38
2023-01-28T16:41:21.189Z,101585.38
2023-01-28T16:43:52.319Z,101596.03
2023-01-28T16:46:23.099Z,101599.13
2023-01-28T16:48:54.896Z,101615.00
2023-01-28T16:51:25.024Z,101608.53
2023-01-28T16:53:54.281Z,101612.34
2023-01-28T16:56:44.601Z,101611.03
2023-01-28T16:59:21.690Z,101608.97
2023-01-28T17:01:51.220Z,101600.66
2023-01-28T17:04:23.276Z,101592.50
2023-01-28T17:06:56.008Z,101587.72
2023-01-28T17:09:26.076Z,101583.84
2023-01-28T17:11:55.919Z,101592.97
2023-01-28T17:14:28.590Z,101589.97
2023-01-28T17:16:58.797Z,101593.03
2023-01-28T17:19:31.608Z,101597.94
2023-01-28T17:22:01.744Z,101606.13
2023-01-28T17:24:31.387Z,101599.81
2023-01-28T17:27:00.577Z,101588.34
2023-01-28T17:29:29.517Z,101581.09
2023-01-28T17:32:00.446Z,101578.09
2023-01-28T17:34:31.436Z,101568.41
2023-01-28T17:37:05.736Z,101572.41
2023-01-28T17:39:38.891Z,101576.34
2023-01-28T17:42:11.375Z,101571.06
2023-01-28T17:44:42.533Z,101580.34
2023-01-28T17:47:17.971Z,101585.16
2023-01-28T17:49:54.041Z,101603.06
2023-01-28T17:52:36.083Z,101601.25
2023-01-28T17:55:09.538Z,101607.94
2023-01-28T17:57:40.209Z,101613.72
2023-01-28T18:00:27.712Z,101617.66
2023-01-28T18:02:59.540Z,101630.25
2023-01-28T18:05:36.019Z,101635.25
2023-01-28T18:08:06.495Z,101629.22
2023-01-28T18:10:35.391Z,101634.97
2023-01-28T18:13:08.207Z,101640.91
2023-01-28T18:15:37.552Z,101640.75
2023-01-28T18:18:06.280Z,101645.91
2023-01-28T18:20:36.655Z,101637.13
2023-01-28T18:23:05.513Z,101635.31
2023-01-28T18:25:34.088Z,101641.84
2023-01-28T18:28:03.992Z,101652.00
2023-01-28T18:30:36.195Z,101658.38
2023-01-28T18:33:05.834Z,101647.81
2023-01-28T18:35:34.328Z,101643.25
2023-01-28T18:38:05.930Z,101643.13
2023-01-28T18:40:35.275Z,101630.25
2023-01-28T18:43:04.690Z,101637.81
2023-01-28T18:45:33.313Z,101645.41
2023-01-28T18:48:01.942Z,101651.94
2023-01-28T18:50:30.605Z,101661.16
2023-01-28T18:52:59.307Z,101667.84
2023-01-28T18:55:32.766Z,101661.50
2023-01-28T18:58:01.497Z,101660.44
2023-01-28T19:00:30.462Z,101664.53
2023-01-28T19:03:02.319Z,101667.88
2023-01-28T19:05:36.054Z,101670.91
2023-01-28T19:08:08.194Z,101670.00
2023-01-28T19:10:38.163Z,101661.09
2023-01-28T19:13:06.957Z,101658.25
2023-01-28T19:15:36.742Z,101652.03
2023-01-28T19:18:05.536Z,101656.13
2023-01-28T19:20:34.043Z,101659.31
2023-01-28T19:23:13.814Z,101670.94
2023-01-28T19:25:57.835Z,101659.47
2023-01-28T19:28:26.394Z,101664.47
2023-01-28T19:30:58.251Z,101671.88
2023-01-28T19:33:29.629Z,101670.09
2023-01-28T19:35:59.455Z,101671.59
2023-01-28T19:38:29.022Z,101669.81
2023-01-28T19:41:04.702Z,101668.75
2023-01-28T19:43:33.949Z,101678.56
2023-01-28T19:46:04.600Z,101674.78
2023-01-28T19:48:34.275Z,101668.28
2023-01-28T19:51:08.409Z,101672.25
2023-01-28T19:53:37.836Z,101671.94
2023-01-28T19:56:11.880Z,101673.47
2023-01-28T19:58:45.825Z,101683.75
2023-01-28T20:01:16.041Z,101686.16
2023-01-28T20:03:45.914Z,101682.50
2023-01-28T20:06:17.203Z,101694.34
2023-01-28T20:08:46.590Z,101699.31
2023-01-28T20:11:17.740Z,101694.00
2023-01-28T20:13:48.374Z,101687.84
2023-01-28T20:16:28.994Z,101684.94
2023-01-28T20:18:59.260Z,101685.53
2023-01-28T20:21:29.691Z,101681.94
2023-01-28T20:24:00.303Z,101690.38
2023-01-28T20:26:34.394Z,101687.81
2023-01-28T20:29:04.307Z,101681.50
2023-01-28T20:31:33.804Z,101683.72
2023-01-28T20:34:03.559Z,101680.13
2023-01-28T20:36:32.246Z,101678.00
2023-01-28T20:39:01.071Z,101667.44
2023-01-28T20:41:30.992Z,101669.72
2023-01-28T20:43:59.548Z,101666.81
2023-01-28T20:46:30.261Z,101668.31
2023-01-28T20:49:00.601Z,101656.25
2023-01-28T20:51:32.059Z,101652.78
2023-01-28T20:54:01.702Z,101648.38
2023-01-28T20:56:32.347Z,101645.66
2023-01-28T20:59:03.763Z,101649.75
2023-01-28T21:01:34.935Z,101646.13
2023-01-28T21:04:04.288Z,101646.88
2023-01-28T21:06:33.936Z,101644.91
2023-01-28T21:09:02.692Z,101652.44
2023-01-28T21:11:32.494Z,101639.63
2023-01-28T21:14:01.319Z,101635.25
2023-01-28T21:16:30.610Z,101635.84
2023-01-28T21:18:59.234Z,101642.31
2023-01-28T21:21:29.431Z,101628.41
2023-01-28T21:24:01.084Z,101628.13
2023-01-28T21:26:30.120Z,101629.63
2023-01-28T21:29:00.093Z,101632.97
2023-01-28T21:31:28.751Z,101626.63
2023-01-28T21:34:01.206Z,101622.41
2023-01-28T21:36:33.833Z,101623.13
2023-01-28T21:39:03.490Z,101621.34
2023-01-28T21:41:33.419Z,101627.22
2023-01-28T21:44:03.732Z,101627.97
2023-01-28T21:46:35.779Z,101621.03
2023-01-28T21:49:06.082Z,101626.16
2023-01-28T21:51:39.682Z,101622.53
2023-01-28T21:54:11.479Z,101616.34
2023-01-28T21:56:40.466Z,101621.91
2023-01-28T21:59:30.659Z,101617.53
2023-01-28T22:02:01.455Z,101618.13
2023-01-28T22:04:32.960Z,101624.03
2023-01-28T22:07:02.502Z,101624.78
2023-01-28T22:09:33.817Z,101622.06
2023-01-28T22:12:05.599Z,101627.94
2023-01-28T22:14:43.567Z,101628.69
2023-01-28T22:17:12.962Z,101634.44
2023-01-28T22:19:47.696Z,101646.19
2023-01-28T22:22:16.302Z,101646.03
2023-01-28T22:24:45.420Z,101638.94
2023-01-28T22:27:15.301Z,101639.81
2023-01-28T22:29:45.169Z,101638.03
2023-01-28T22:32:13.874Z,101641.34
2023-01-28T22:34:42.640Z,101648.00
2023-01-28T22:37:11.567Z,101652.22
2023-01-28T22:39:40.908Z,101655.50
2023-01-28T22:42:09.484Z,101648.72
2023-01-28T22:44:41.449Z,101655.50
2023-01-28T22:47:11.963Z,101649.19
2023-01-28T22:49:41.850Z,101649.19
2023-01-28T22:52:12.813Z,101649.91
2023-01-28T22:54:41.631Z,101640.13
2023-01-28T22:57:10.218Z,101644.91
2023-01-28T22:59:43.723Z,101644.59
2023-01-28T23:02:17.304Z,101633.28
2023-01-28T23:04:46.567Z,101642.50
2023-01-28T23:07:15.320Z,101643.22
2023-01-28T23:09:44.681Z,101644.00
2023-01-28T23:12:15.166Z,101644.00
2023-01-28T23:15:01.247Z,101641.41
2023-01-28T23:17:49.672Z,101648.22
2023-01-28T23:20:39.143Z,101631.91
2023-01-28T23:23:33.615Z,101628.28
2023-01-28T23:26:02.911Z,101628.28
2023-01-28T23:28:31.491Z,101629.78
2023-01-28T23:31:01.056Z,101625.56
2023-01-28T23:33:31.255Z,101621.19
2023-01-28T23:36:00.429Z,101624.50
2023-01-28T23:38:29.818Z,101621.75
2023-01-28T23:40:59.551Z,101629.44
2023-01-28T23:43:28.742Z,101626.75
2023-01-28T23:45:58.138Z,101623.13
2023-01-28T23:48:28.011Z,101610.13
2023-01-28T23:50:57.880Z,101608.34
2023-01-28T23:53:27.241Z,101612.56
2023-01-28T23:55:55.717Z,101606.53
2023-01-28T23:58:42.284Z,101609.81
